<?xml version="1.0" encoding="UTF-8" standalone="no" ?>
<gpx xmlns="http://www.topografix.com/GPX/1/1" xmlns:xsi="http://www.w3.org/2001/XMLSchema-instance" xsi:schemaLocation="http://www.topografix.com/GPX/1/1 http://www.topografix.com/GPX/1/1/gpx.xsd" version="1.1" creator="VisuGPX - https://www.visugpx.com">
  <metadata>
    <name>Garrigues la Madeleine, Gardiole de Mireval avec ses monts et sa vallée</name>
    <desc><![CDATA[#fait]]></desc>
  </metadata>
  <wpt lat="43.54608" lon="3.81842">
    <ele>40</ele>
    <name><![CDATA[Stationnement près du refuge SPA]]></name>
  </wpt>
  <wpt lat="43.54346" lon="3.81673">
    <ele>48</ele>
    <name><![CDATA[Bifurcation commune aller-retour]]></name>
  </wpt>
  <wpt lat="43.53578" lon="3.81133">
    <ele>182</ele>
    <name><![CDATA[Bifurcation de la croix ]]></name>
  </wpt>
  <wpt lat="43.53431" lon="3.80916">
    <ele>155</ele>
    <name><![CDATA[Bifurcation au cairn]]></name>
  </wpt>
  <wpt lat="43.53203" lon="3.80682">
    <ele>114</ele>
    <name><![CDATA[Sente descendante à droite]]></name>
  </wpt>
  <wpt lat="43.53383" lon="3.80362">
    <ele>100</ele>
    <name><![CDATA[Jonction large chemin]]></name>
  </wpt>
  <wpt lat="43.53336" lon="3.80042">
    <ele>90</ele>
    <name><![CDATA[Suite du chemin à droite (virage)]]></name>
  </wpt>
  <wpt lat="43.52978" lon="3.79535">
    <ele>149</ele>
    <name><![CDATA[Fourche (cote 147)]]></name>
  </wpt>
  <wpt lat="43.52523" lon="3.7892">
    <ele>100</ele>
    <name><![CDATA[Bifurcation en diagonale]]></name>
  </wpt>
  <wpt lat="43.53867" lon="3.79643">
    <ele>130</ele>
    <name><![CDATA[Bifurcation]]></name>
  </wpt>
  <wpt lat="43.54125" lon="3.80532">
    <ele>59</ele>
    <name><![CDATA[Départ de sente]]></name>
  </wpt>
  <wpt lat="43.5461" lon="3.81848">
    <ele>40</ele>
    <name><![CDATA[Stationnement près du refuge SPA]]></name>
  </wpt>
  <trk>
    <name><![CDATA[Garrigues la Madeleine, Gardiole de Mireval avec ses monts et sa vallée]]></name>
    <trkseg>
      <trkpt lat="43.54608" lon="3.81842">
        <ele>40</ele>
        <time>2021-06-16T06:55:15+02:00</time>
      </trkpt>
      <trkpt lat="43.54618" lon="3.81816">
        <ele>40</ele>
      </trkpt>
      <trkpt lat="43.54623" lon="3.81794">
        <ele>41</ele>
      </trkpt>
      <trkpt lat="43.54611" lon="3.81783">
        <ele>43</ele>
        <time>2021-06-16T06:56:16+02:00</time>
      </trkpt>
      <trkpt lat="43.54583" lon="3.8177">
        <ele>44</ele>
        <time>2021-06-16T06:56:36+02:00</time>
      </trkpt>
      <trkpt lat="43.5456" lon="3.81753">
        <ele>45</ele>
        <time>2021-06-16T06:58:26+02:00</time>
      </trkpt>
      <trkpt lat="43.54542" lon="3.81746">
        <ele>46</ele>
        <time>2021-06-16T06:58:45+02:00</time>
      </trkpt>
      <trkpt lat="43.5452" lon="3.81739">
        <ele>46</ele>
        <time>2021-06-16T06:59:04+02:00</time>
      </trkpt>
      <trkpt lat="43.54474" lon="3.81733">
        <ele>46</ele>
        <time>2021-06-16T06:59:51+02:00</time>
      </trkpt>
      <trkpt lat="43.54452" lon="3.81722">
        <ele>47</ele>
        <time>2021-06-16T07:00:17+02:00</time>
      </trkpt>
      <trkpt lat="43.54431" lon="3.81708">
        <ele>48</ele>
        <time>2021-06-16T07:00:39+02:00</time>
      </trkpt>
      <trkpt lat="43.54413" lon="3.81689">
        <ele>48</ele>
        <time>2021-06-16T07:01:02+02:00</time>
      </trkpt>
      <trkpt lat="43.54388" lon="3.8168">
        <ele>49</ele>
        <time>2021-06-16T07:01:23+02:00</time>
      </trkpt>
      <trkpt lat="43.54377" lon="3.81674">
        <ele>48</ele>
        <time>2021-06-16T07:01:42+02:00</time>
      </trkpt>
      <trkpt lat="43.54346" lon="3.81673">
        <ele>48</ele>
        <time>2021-06-16T07:02:03+02:00</time>
      </trkpt>
      <trkpt lat="43.54331" lon="3.81666">
        <ele>48</ele>
        <time>2021-06-16T07:02:25+02:00</time>
      </trkpt>
      <trkpt lat="43.54313" lon="3.81719">
        <ele>47</ele>
        <time>2021-06-16T07:02:45+02:00</time>
      </trkpt>
      <trkpt lat="43.543" lon="3.81759">
        <ele>46</ele>
        <time>2021-06-16T07:03:04+02:00</time>
      </trkpt>
      <trkpt lat="43.54247" lon="3.81726">
        <ele>49</ele>
        <time>2021-06-16T07:03:29+02:00</time>
      </trkpt>
      <trkpt lat="43.54227" lon="3.81709">
        <ele>49</ele>
        <time>2021-06-16T07:03:53+02:00</time>
      </trkpt>
      <trkpt lat="43.54219" lon="3.81696">
        <ele>50</ele>
        <time>2021-06-16T07:04:15+02:00</time>
      </trkpt>
      <trkpt lat="43.54197" lon="3.81683">
        <ele>50</ele>
        <time>2021-06-16T07:04:33+02:00</time>
      </trkpt>
      <trkpt lat="43.54184" lon="3.81657">
        <ele>52</ele>
        <time>2021-06-16T07:04:54+02:00</time>
      </trkpt>
      <trkpt lat="43.54167" lon="3.81637">
        <ele>54</ele>
        <time>2021-06-16T07:05:21+02:00</time>
      </trkpt>
      <trkpt lat="43.54149" lon="3.81616">
        <ele>56</ele>
        <time>2021-06-16T07:05:44+02:00</time>
      </trkpt>
      <trkpt lat="43.54131" lon="3.81597">
        <ele>59</ele>
        <time>2021-06-16T07:06:07+02:00</time>
      </trkpt>
      <trkpt lat="43.54109" lon="3.81586">
        <ele>63</ele>
        <time>2021-06-16T07:06:44+02:00</time>
      </trkpt>
      <trkpt lat="43.54092" lon="3.81565">
        <ele>69</ele>
        <time>2021-06-16T07:07:09+02:00</time>
      </trkpt>
      <trkpt lat="43.54072" lon="3.81549">
        <ele>75</ele>
        <time>2021-06-16T07:08:27+02:00</time>
      </trkpt>
      <trkpt lat="43.54053" lon="3.81532">
        <ele>79</ele>
        <time>2021-06-16T07:09:22+02:00</time>
      </trkpt>
      <trkpt lat="43.54033" lon="3.81518">
        <ele>85</ele>
        <time>2021-06-16T07:10:20+02:00</time>
      </trkpt>
      <trkpt lat="43.5401" lon="3.81515">
        <ele>91</ele>
        <time>2021-06-16T07:11:12+02:00</time>
      </trkpt>
      <trkpt lat="43.53988" lon="3.81506">
        <ele>96</ele>
        <time>2021-06-16T07:11:53+02:00</time>
      </trkpt>
      <trkpt lat="43.53968" lon="3.81493">
        <ele>103</ele>
        <time>2021-06-16T07:12:44+02:00</time>
      </trkpt>
      <trkpt lat="43.53947" lon="3.81482">
        <ele>110</ele>
        <time>2021-06-16T07:13:21+02:00</time>
      </trkpt>
      <trkpt lat="43.53927" lon="3.81467">
        <ele>116</ele>
        <time>2021-06-16T07:14:18+02:00</time>
      </trkpt>
      <trkpt lat="43.53905" lon="3.81459">
        <ele>121</ele>
        <time>2021-06-16T07:15:07+02:00</time>
      </trkpt>
      <trkpt lat="43.53882" lon="3.81451">
        <ele>126</ele>
        <time>2021-06-16T07:15:54+02:00</time>
      </trkpt>
      <trkpt lat="43.53862" lon="3.81438">
        <ele>131</ele>
        <time>2021-06-16T07:16:40+02:00</time>
      </trkpt>
      <trkpt lat="43.53842" lon="3.81422">
        <ele>134</ele>
        <time>2021-06-16T07:17:11+02:00</time>
      </trkpt>
      <trkpt lat="43.53824" lon="3.81404">
        <ele>138</ele>
        <time>2021-06-16T07:17:52+02:00</time>
      </trkpt>
      <trkpt lat="43.53803" lon="3.8139">
        <ele>143</ele>
        <time>2021-06-16T07:18:31+02:00</time>
      </trkpt>
      <trkpt lat="43.53784" lon="3.81374">
        <ele>147</ele>
        <time>2021-06-16T07:19:08+02:00</time>
      </trkpt>
      <trkpt lat="43.53763" lon="3.8136">
        <ele>152</ele>
        <time>2021-06-16T07:19:40+02:00</time>
      </trkpt>
      <trkpt lat="43.53743" lon="3.81346">
        <ele>155</ele>
        <time>2021-06-16T07:20:31+02:00</time>
      </trkpt>
      <trkpt lat="43.53724" lon="3.81326">
        <ele>160</ele>
        <time>2021-06-16T07:21:13+02:00</time>
      </trkpt>
      <trkpt lat="43.53702" lon="3.81318">
        <ele>164</ele>
        <time>2021-06-16T07:21:37+02:00</time>
      </trkpt>
      <trkpt lat="43.5368" lon="3.81308">
        <ele>167</ele>
        <time>2021-06-16T07:22:10+02:00</time>
      </trkpt>
      <trkpt lat="43.53658" lon="3.81299">
        <ele>169</ele>
        <time>2021-06-16T07:22:51+02:00</time>
      </trkpt>
      <trkpt lat="43.53637" lon="3.81286">
        <ele>171</ele>
        <time>2021-06-16T07:23:23+02:00</time>
      </trkpt>
      <trkpt lat="43.53636" lon="3.81254">
        <ele>175</ele>
        <time>2021-06-16T07:24:34+02:00</time>
      </trkpt>
      <trkpt lat="43.53622" lon="3.81228">
        <ele>179</ele>
        <time>2021-06-16T07:25:07+02:00</time>
      </trkpt>
      <trkpt lat="43.53603" lon="3.81208">
        <ele>182</ele>
        <time>2021-06-16T07:25:51+02:00</time>
      </trkpt>
      <trkpt lat="43.5359" lon="3.81183">
        <ele>184</ele>
        <time>2021-06-16T07:26:18+02:00</time>
      </trkpt>
      <trkpt lat="43.53576" lon="3.81157">
        <ele>184</ele>
        <time>2021-06-16T07:26:54+02:00</time>
      </trkpt>
      <trkpt lat="43.53578" lon="3.81133">
        <ele>182</ele>
        <time>2021-06-16T07:29:08+02:00</time>
      </trkpt>
      <trkpt lat="43.53559" lon="3.81102">
        <ele>180</ele>
        <time>2021-06-16T07:29:29+02:00</time>
      </trkpt>
      <trkpt lat="43.53539" lon="3.81085">
        <ele>178</ele>
        <time>2021-06-16T07:29:53+02:00</time>
      </trkpt>
      <trkpt lat="43.53527" lon="3.81066">
        <ele>176</ele>
      </trkpt>
      <trkpt lat="43.53519" lon="3.81043">
        <ele>173</ele>
        <time>2021-06-16T07:30:22+02:00</time>
      </trkpt>
      <trkpt lat="43.53542" lon="3.8104">
        <ele>172</ele>
        <time>2021-06-16T07:31:04+02:00</time>
      </trkpt>
      <trkpt lat="43.53563" lon="3.81036">
        <ele>170</ele>
        <time>2021-06-16T07:31:30+02:00</time>
      </trkpt>
      <trkpt lat="43.53586" lon="3.8103">
        <ele>167</ele>
        <time>2021-06-16T07:31:54+02:00</time>
      </trkpt>
      <trkpt lat="43.53603" lon="3.81025">
        <ele>164</ele>
      </trkpt>
      <trkpt lat="43.5361" lon="3.81002">
        <ele>158</ele>
        <time>2021-06-16T07:32:56+02:00</time>
      </trkpt>
      <trkpt lat="43.53597" lon="3.80962">
        <ele>153</ele>
        <time>2021-06-16T07:33:24+02:00</time>
      </trkpt>
      <trkpt lat="43.53576" lon="3.80934">
        <ele>153</ele>
        <time>2021-06-16T07:33:54+02:00</time>
      </trkpt>
      <trkpt lat="43.53568" lon="3.80905">
        <ele>152</ele>
        <time>2021-06-16T07:34:08+02:00</time>
      </trkpt>
      <trkpt lat="43.53558" lon="3.80876">
        <ele>151</ele>
        <time>2021-06-16T07:34:31+02:00</time>
      </trkpt>
      <trkpt lat="43.53549" lon="3.80848">
        <ele>149</ele>
        <time>2021-06-16T07:34:51+02:00</time>
      </trkpt>
      <trkpt lat="43.53542" lon="3.80818">
        <ele>146</ele>
        <time>2021-06-16T07:35:06+02:00</time>
      </trkpt>
      <trkpt lat="43.5353" lon="3.80791">
        <ele>143</ele>
        <time>2021-06-16T07:35:31+02:00</time>
      </trkpt>
      <trkpt lat="43.53509" lon="3.80805">
        <ele>145</ele>
        <time>2021-06-16T07:35:59+02:00</time>
      </trkpt>
      <trkpt lat="43.53493" lon="3.80827">
        <ele>148</ele>
        <time>2021-06-16T07:36:50+02:00</time>
      </trkpt>
      <trkpt lat="43.53477" lon="3.8085">
        <ele>152</ele>
        <time>2021-06-16T07:37:09+02:00</time>
      </trkpt>
      <trkpt lat="43.53461" lon="3.80873">
        <ele>154</ele>
        <time>2021-06-16T07:37:32+02:00</time>
      </trkpt>
      <trkpt lat="43.53452" lon="3.80901">
        <ele>156</ele>
        <time>2021-06-16T07:37:57+02:00</time>
      </trkpt>
      <trkpt lat="43.53431" lon="3.80916">
        <ele>155</ele>
        <time>2021-06-16T07:38:18+02:00</time>
      </trkpt>
      <trkpt lat="43.53408" lon="3.80915">
        <ele>154</ele>
        <time>2021-06-16T07:38:42+02:00</time>
      </trkpt>
      <trkpt lat="43.53386" lon="3.80909">
        <ele>151</ele>
        <time>2021-06-16T07:39:07+02:00</time>
      </trkpt>
      <trkpt lat="43.53371" lon="3.80883">
        <ele>149</ele>
        <time>2021-06-16T07:39:38+02:00</time>
      </trkpt>
      <trkpt lat="43.53354" lon="3.80863">
        <ele>146</ele>
        <time>2021-06-16T07:40:05+02:00</time>
      </trkpt>
      <trkpt lat="43.5334" lon="3.80839">
        <ele>144</ele>
        <time>2021-06-16T07:40:41+02:00</time>
      </trkpt>
      <trkpt lat="43.53325" lon="3.80815">
        <ele>141</ele>
        <time>2021-06-16T07:41:05+02:00</time>
      </trkpt>
      <trkpt lat="43.53303" lon="3.80805">
        <ele>138</ele>
        <time>2021-06-16T07:41:27+02:00</time>
      </trkpt>
      <trkpt lat="43.53282" lon="3.80792">
        <ele>135</ele>
        <time>2021-06-16T07:41:50+02:00</time>
      </trkpt>
      <trkpt lat="43.53266" lon="3.80769">
        <ele>132</ele>
        <time>2021-06-16T07:43:31+02:00</time>
      </trkpt>
      <trkpt lat="43.53251" lon="3.80746">
        <ele>130</ele>
        <time>2021-06-16T07:43:55+02:00</time>
      </trkpt>
      <trkpt lat="43.5323" lon="3.80731">
        <ele>125</ele>
        <time>2021-06-16T07:44:25+02:00</time>
      </trkpt>
      <trkpt lat="43.53212" lon="3.80711">
        <ele>120</ele>
        <time>2021-06-16T07:45:12+02:00</time>
      </trkpt>
      <trkpt lat="43.53203" lon="3.80682">
        <ele>114</ele>
        <time>2021-06-16T07:47:09+02:00</time>
      </trkpt>
      <trkpt lat="43.53221" lon="3.80632">
        <ele>108</ele>
        <time>2021-06-16T07:48:11+02:00</time>
      </trkpt>
      <trkpt lat="43.53233" lon="3.80606">
        <ele>99</ele>
        <time>2021-06-16T07:49:39+02:00</time>
      </trkpt>
      <trkpt lat="43.53249" lon="3.80584">
        <ele>94</ele>
        <time>2021-06-16T07:50:30+02:00</time>
      </trkpt>
      <trkpt lat="43.53268" lon="3.80567">
        <ele>90</ele>
        <time>2021-06-16T07:52:07+02:00</time>
      </trkpt>
      <trkpt lat="43.53283" lon="3.80544">
        <ele>84</ele>
        <time>2021-06-16T07:54:22+02:00</time>
      </trkpt>
      <trkpt lat="43.53302" lon="3.80525">
        <ele>79</ele>
        <time>2021-06-16T07:55:23+02:00</time>
      </trkpt>
      <trkpt lat="43.53321" lon="3.80506">
        <ele>75</ele>
        <time>2021-06-16T07:56:00+02:00</time>
      </trkpt>
      <trkpt lat="43.53319" lon="3.80475">
        <ele>75</ele>
        <time>2021-06-16T07:57:41+02:00</time>
      </trkpt>
      <trkpt lat="43.53339" lon="3.8046">
        <ele>79</ele>
        <time>2021-06-16T07:58:32+02:00</time>
      </trkpt>
      <trkpt lat="43.5334" lon="3.80428">
        <ele>85</ele>
        <time>2021-06-16T07:59:33+02:00</time>
      </trkpt>
      <trkpt lat="43.53354" lon="3.80402">
        <ele>90</ele>
        <time>2021-06-16T08:00:19+02:00</time>
      </trkpt>
      <trkpt lat="43.53371" lon="3.80381">
        <ele>95</ele>
        <time>2021-06-16T08:01:46+02:00</time>
      </trkpt>
      <trkpt lat="43.53393" lon="3.80374">
        <ele>100</ele>
        <time>2021-06-16T08:03:03+02:00</time>
      </trkpt>
      <trkpt lat="43.53383" lon="3.80362">
        <ele>100</ele>
        <time>2021-06-16T08:07:38+02:00</time>
      </trkpt>
      <trkpt lat="43.53372" lon="3.80349">
        <ele>99</ele>
      </trkpt>
      <trkpt lat="43.53365" lon="3.80324">
        <ele>99</ele>
        <time>2021-06-16T08:08:03+02:00</time>
      </trkpt>
      <trkpt lat="43.53362" lon="3.80292">
        <ele>98</ele>
        <time>2021-06-16T08:08:23+02:00</time>
      </trkpt>
      <trkpt lat="43.5336" lon="3.80261">
        <ele>98</ele>
        <time>2021-06-16T08:08:44+02:00</time>
      </trkpt>
      <trkpt lat="43.53357" lon="3.80229">
        <ele>96</ele>
        <time>2021-06-16T08:09:03+02:00</time>
      </trkpt>
      <trkpt lat="43.53356" lon="3.80197">
        <ele>95</ele>
        <time>2021-06-16T08:09:43+02:00</time>
      </trkpt>
      <trkpt lat="43.5335" lon="3.80167">
        <ele>91</ele>
        <time>2021-06-16T08:09:54+02:00</time>
      </trkpt>
      <trkpt lat="43.53348" lon="3.80134">
        <ele>91</ele>
        <time>2021-06-16T08:10:16+02:00</time>
      </trkpt>
      <trkpt lat="43.53346" lon="3.80103">
        <ele>91</ele>
        <time>2021-06-16T08:10:40+02:00</time>
      </trkpt>
      <trkpt lat="43.53344" lon="3.80071">
        <ele>92</ele>
        <time>2021-06-16T08:10:58+02:00</time>
      </trkpt>
      <trkpt lat="43.53336" lon="3.80042">
        <ele>90</ele>
        <time>2021-06-16T08:11:11+02:00</time>
      </trkpt>
      <trkpt lat="43.53313" lon="3.80047">
        <ele>88</ele>
        <time>2021-06-16T08:11:39+02:00</time>
      </trkpt>
      <trkpt lat="43.53304" lon="3.80076">
        <ele>87</ele>
        <time>2021-06-16T08:12:05+02:00</time>
      </trkpt>
      <trkpt lat="43.53292" lon="3.80104">
        <ele>90</ele>
        <time>2021-06-16T08:12:23+02:00</time>
      </trkpt>
      <trkpt lat="43.53279" lon="3.80131">
        <ele>91</ele>
        <time>2021-06-16T08:12:45+02:00</time>
      </trkpt>
      <trkpt lat="43.53264" lon="3.80156">
        <ele>93</ele>
        <time>2021-06-16T08:13:07+02:00</time>
      </trkpt>
      <trkpt lat="43.53249" lon="3.8018">
        <ele>94</ele>
        <time>2021-06-16T08:13:33+02:00</time>
      </trkpt>
      <trkpt lat="43.53204" lon="3.802">
        <ele>98</ele>
        <time>2021-06-16T08:14:16+02:00</time>
      </trkpt>
      <trkpt lat="43.53236" lon="3.80138">
        <ele>102</ele>
        <time>2021-06-16T08:14:49+02:00</time>
      </trkpt>
      <trkpt lat="43.53194" lon="3.80147">
        <ele>105</ele>
        <time>2021-06-16T08:15:40+02:00</time>
      </trkpt>
      <trkpt lat="43.53226" lon="3.80099">
        <ele>110</ele>
        <time>2021-06-16T08:16:29+02:00</time>
      </trkpt>
      <trkpt lat="43.53173" lon="3.80085">
        <ele>113</ele>
      </trkpt>
      <trkpt lat="43.5319" lon="3.80062">
        <ele>115</ele>
        <time>2021-06-16T08:17:30+02:00</time>
      </trkpt>
      <trkpt lat="43.53168" lon="3.80058">
        <ele>116</ele>
        <time>2021-06-16T08:18:08+02:00</time>
      </trkpt>
      <trkpt lat="43.53148" lon="3.80042">
        <ele>118</ele>
        <time>2021-06-16T08:18:33+02:00</time>
      </trkpt>
      <trkpt lat="43.53129" lon="3.80024">
        <ele>120</ele>
        <time>2021-06-16T08:18:56+02:00</time>
      </trkpt>
      <trkpt lat="43.53111" lon="3.80005">
        <ele>122</ele>
        <time>2021-06-16T08:19:15+02:00</time>
      </trkpt>
      <trkpt lat="43.53095" lon="3.7998">
        <ele>125</ele>
        <time>2021-06-16T08:19:40+02:00</time>
      </trkpt>
      <trkpt lat="43.53078" lon="3.79958">
        <ele>127</ele>
        <time>2021-06-16T08:20:00+02:00</time>
      </trkpt>
      <trkpt lat="43.53064" lon="3.79933">
        <ele>128</ele>
        <time>2021-06-16T08:20:24+02:00</time>
      </trkpt>
      <trkpt lat="43.5303" lon="3.79907">
        <ele>129</ele>
      </trkpt>
      <trkpt lat="43.5308" lon="3.79912">
        <ele>131</ele>
        <time>2021-06-16T08:21:02+02:00</time>
      </trkpt>
      <trkpt lat="43.53103" lon="3.79911">
        <ele>132</ele>
        <time>2021-06-16T08:21:24+02:00</time>
      </trkpt>
      <trkpt lat="43.53121" lon="3.79893">
        <ele>134</ele>
        <time>2021-06-16T08:21:47+02:00</time>
      </trkpt>
      <trkpt lat="43.53123" lon="3.79862">
        <ele>137</ele>
        <time>2021-06-16T08:22:23+02:00</time>
      </trkpt>
      <trkpt lat="43.53122" lon="3.79829">
        <ele>140</ele>
        <time>2021-06-16T08:22:50+02:00</time>
      </trkpt>
      <trkpt lat="43.53143" lon="3.79815">
        <ele>142</ele>
      </trkpt>
      <trkpt lat="43.53118" lon="3.79797">
        <ele>143</ele>
        <time>2021-06-16T08:23:18+02:00</time>
      </trkpt>
      <trkpt lat="43.53102" lon="3.79774">
        <ele>145</ele>
        <time>2021-06-16T08:23:41+02:00</time>
      </trkpt>
      <trkpt lat="43.53079" lon="3.79765">
        <ele>145</ele>
        <time>2021-06-16T08:23:59+02:00</time>
      </trkpt>
      <trkpt lat="43.5306" lon="3.79747">
        <ele>147</ele>
        <time>2021-06-16T08:24:18+02:00</time>
      </trkpt>
      <trkpt lat="43.53045" lon="3.79722">
        <ele>148</ele>
        <time>2021-06-16T08:24:43+02:00</time>
      </trkpt>
      <trkpt lat="43.53043" lon="3.79691">
        <ele>152</ele>
        <time>2021-06-16T08:25:07+02:00</time>
      </trkpt>
      <trkpt lat="43.53027" lon="3.79668">
        <ele>153</ele>
        <time>2021-06-16T08:25:30+02:00</time>
      </trkpt>
      <trkpt lat="43.53004" lon="3.79666">
        <ele>151</ele>
        <time>2021-06-16T08:25:48+02:00</time>
      </trkpt>
      <trkpt lat="43.52982" lon="3.7966">
        <ele>149</ele>
        <time>2021-06-16T08:26:08+02:00</time>
      </trkpt>
      <trkpt lat="43.52962" lon="3.79644">
        <ele>147</ele>
        <time>2021-06-16T08:26:32+02:00</time>
      </trkpt>
      <trkpt lat="43.52947" lon="3.7962">
        <ele>145</ele>
        <time>2021-06-16T08:26:57+02:00</time>
      </trkpt>
      <trkpt lat="43.52954" lon="3.79589">
        <ele>146</ele>
        <time>2021-06-16T08:27:14+02:00</time>
      </trkpt>
      <trkpt lat="43.52969" lon="3.79564">
        <ele>148</ele>
        <time>2021-06-16T08:27:41+02:00</time>
      </trkpt>
      <trkpt lat="43.52978" lon="3.79535">
        <ele>149</ele>
        <time>2021-06-16T08:28:01+02:00</time>
      </trkpt>
      <trkpt lat="43.52982" lon="3.79504">
        <ele>149</ele>
        <time>2021-06-16T08:28:20+02:00</time>
      </trkpt>
      <trkpt lat="43.52981" lon="3.79472">
        <ele>150</ele>
        <time>2021-06-16T08:28:40+02:00</time>
      </trkpt>
      <trkpt lat="43.52972" lon="3.79443">
        <ele>149</ele>
        <time>2021-06-16T08:30:05+02:00</time>
      </trkpt>
      <trkpt lat="43.5296" lon="3.79417">
        <ele>146</ele>
        <time>2021-06-16T08:30:31+02:00</time>
      </trkpt>
      <trkpt lat="43.52946" lon="3.79392">
        <ele>143</ele>
        <time>2021-06-16T08:30:51+02:00</time>
      </trkpt>
      <trkpt lat="43.52929" lon="3.79372">
        <ele>138</ele>
        <time>2021-06-16T08:31:21+02:00</time>
      </trkpt>
      <trkpt lat="43.52909" lon="3.79355">
        <ele>133</ele>
        <time>2021-06-16T08:32:04+02:00</time>
      </trkpt>
      <trkpt lat="43.52888" lon="3.79343">
        <ele>129</ele>
        <time>2021-06-16T08:32:38+02:00</time>
      </trkpt>
      <trkpt lat="43.52865" lon="3.79343">
        <ele>123</ele>
        <time>2021-06-16T08:33:08+02:00</time>
      </trkpt>
      <trkpt lat="43.52844" lon="3.79356">
        <ele>120</ele>
        <time>2021-06-16T08:33:36+02:00</time>
      </trkpt>
      <trkpt lat="43.52824" lon="3.7937">
        <ele>119</ele>
        <time>2021-06-16T08:33:55+02:00</time>
      </trkpt>
      <trkpt lat="43.52803" lon="3.79382">
        <ele>121</ele>
        <time>2021-06-16T08:34:17+02:00</time>
      </trkpt>
      <trkpt lat="43.52782" lon="3.79394">
        <ele>122</ele>
        <time>2021-06-16T08:34:37+02:00</time>
      </trkpt>
      <trkpt lat="43.52761" lon="3.79406">
        <ele>123</ele>
        <time>2021-06-16T08:34:55+02:00</time>
      </trkpt>
      <trkpt lat="43.52739" lon="3.79415">
        <ele>123</ele>
        <time>2021-06-16T08:35:16+02:00</time>
      </trkpt>
      <trkpt lat="43.52717" lon="3.79424">
        <ele>122</ele>
        <time>2021-06-16T08:35:35+02:00</time>
      </trkpt>
      <trkpt lat="43.52695" lon="3.79426">
        <ele>121</ele>
        <time>2021-06-16T08:35:57+02:00</time>
      </trkpt>
      <trkpt lat="43.52672" lon="3.79423">
        <ele>117</ele>
        <time>2021-06-16T08:36:20+02:00</time>
      </trkpt>
      <trkpt lat="43.52649" lon="3.79428">
        <ele>114</ele>
        <time>2021-06-16T08:36:46+02:00</time>
      </trkpt>
      <trkpt lat="43.52634" lon="3.79404">
        <ele>113</ele>
        <time>2021-06-16T08:37:35+02:00</time>
      </trkpt>
      <trkpt lat="43.52628" lon="3.79374">
        <ele>113</ele>
        <time>2021-06-16T08:37:52+02:00</time>
      </trkpt>
      <trkpt lat="43.52623" lon="3.79343">
        <ele>113</ele>
        <time>2021-06-16T08:38:12+02:00</time>
      </trkpt>
      <trkpt lat="43.52617" lon="3.79311">
        <ele>113</ele>
        <time>2021-06-16T08:38:30+02:00</time>
      </trkpt>
      <trkpt lat="43.52612" lon="3.79281">
        <ele>112</ele>
        <time>2021-06-16T08:38:52+02:00</time>
      </trkpt>
      <trkpt lat="43.52611" lon="3.79249">
        <ele>112</ele>
        <time>2021-06-16T08:39:13+02:00</time>
      </trkpt>
      <trkpt lat="43.5261" lon="3.79217">
        <ele>111</ele>
        <time>2021-06-16T08:39:33+02:00</time>
      </trkpt>
      <trkpt lat="43.52602" lon="3.79188">
        <ele>108</ele>
        <time>2021-06-16T08:39:53+02:00</time>
      </trkpt>
      <trkpt lat="43.52598" lon="3.79157">
        <ele>105</ele>
        <time>2021-06-16T08:40:17+02:00</time>
      </trkpt>
      <trkpt lat="43.52594" lon="3.79126">
        <ele>102</ele>
        <time>2021-06-16T08:40:45+02:00</time>
      </trkpt>
      <trkpt lat="43.52588" lon="3.79096">
        <ele>100</ele>
        <time>2021-06-16T08:41:11+02:00</time>
      </trkpt>
      <trkpt lat="43.52571" lon="3.79075">
        <ele>96</ele>
        <time>2021-06-16T08:41:43+02:00</time>
      </trkpt>
      <trkpt lat="43.52561" lon="3.79047">
        <ele>94</ele>
        <time>2021-06-16T08:42:02+02:00</time>
      </trkpt>
      <trkpt lat="43.52548" lon="3.7902">
        <ele>94</ele>
        <time>2021-06-16T08:42:22+02:00</time>
      </trkpt>
      <trkpt lat="43.52537" lon="3.78992">
        <ele>94</ele>
        <time>2021-06-16T08:42:39+02:00</time>
      </trkpt>
      <trkpt lat="43.52529" lon="3.78962">
        <ele>96</ele>
        <time>2021-06-16T08:43:08+02:00</time>
      </trkpt>
      <trkpt lat="43.52523" lon="3.7892">
        <ele>100</ele>
        <time>2021-06-16T08:43:36+02:00</time>
      </trkpt>
      <trkpt lat="43.52526" lon="3.789">
        <ele>101</ele>
        <time>2021-06-16T08:43:57+02:00</time>
      </trkpt>
      <trkpt lat="43.52522" lon="3.78869">
        <ele>103</ele>
        <time>2021-06-16T08:44:23+02:00</time>
      </trkpt>
      <trkpt lat="43.52517" lon="3.78838">
        <ele>105</ele>
        <time>2021-06-16T08:45:07+02:00</time>
      </trkpt>
      <trkpt lat="43.52516" lon="3.78807">
        <ele>108</ele>
        <time>2021-06-16T08:45:37+02:00</time>
      </trkpt>
      <trkpt lat="43.5251" lon="3.78775">
        <ele>110</ele>
        <time>2021-06-16T08:46:21+02:00</time>
      </trkpt>
      <trkpt lat="43.5251" lon="3.78744">
        <ele>112</ele>
        <time>2021-06-16T08:46:40+02:00</time>
      </trkpt>
      <trkpt lat="43.52533" lon="3.7875">
        <ele>114</ele>
        <time>2021-06-16T08:48:05+02:00</time>
      </trkpt>
      <trkpt lat="43.52552" lon="3.78766">
        <ele>118</ele>
        <time>2021-06-16T08:48:31+02:00</time>
      </trkpt>
      <trkpt lat="43.52575" lon="3.78768">
        <ele>123</ele>
        <time>2021-06-16T08:48:59+02:00</time>
      </trkpt>
      <trkpt lat="43.52598" lon="3.78769">
        <ele>125</ele>
        <time>2021-06-16T08:49:20+02:00</time>
      </trkpt>
      <trkpt lat="43.52621" lon="3.78765">
        <ele>124</ele>
        <time>2021-06-16T08:49:43+02:00</time>
      </trkpt>
      <trkpt lat="43.52643" lon="3.78759">
        <ele>123</ele>
        <time>2021-06-16T08:50:02+02:00</time>
      </trkpt>
      <trkpt lat="43.52666" lon="3.78753">
        <ele>123</ele>
        <time>2021-06-16T08:50:30+02:00</time>
      </trkpt>
      <trkpt lat="43.52689" lon="3.7875">
        <ele>123</ele>
        <time>2021-06-16T08:50:59+02:00</time>
      </trkpt>
      <trkpt lat="43.52713" lon="3.78747">
        <ele>126</ele>
        <time>2021-06-16T08:51:21+02:00</time>
      </trkpt>
      <trkpt lat="43.52735" lon="3.7875">
        <ele>130</ele>
        <time>2021-06-16T08:53:11+02:00</time>
      </trkpt>
      <trkpt lat="43.52749" lon="3.78775">
        <ele>135</ele>
        <time>2021-06-16T08:54:28+02:00</time>
      </trkpt>
      <trkpt lat="43.52765" lon="3.78797">
        <ele>145</ele>
        <time>2021-06-16T08:55:39+02:00</time>
      </trkpt>
      <trkpt lat="43.52786" lon="3.78807">
        <ele>156</ele>
        <time>2021-06-16T08:57:39+02:00</time>
      </trkpt>
      <trkpt lat="43.52802" lon="3.7883">
        <ele>166</ele>
        <time>2021-06-16T09:00:19+02:00</time>
      </trkpt>
      <trkpt lat="43.52825" lon="3.78828">
        <ele>175</ele>
        <time>2021-06-16T09:02:14+02:00</time>
      </trkpt>
      <trkpt lat="43.52845" lon="3.78842">
        <ele>181</ele>
        <time>2021-06-16T09:03:46+02:00</time>
      </trkpt>
      <trkpt lat="43.52861" lon="3.78864">
        <ele>187</ele>
        <time>2021-06-16T09:04:34+02:00</time>
      </trkpt>
      <trkpt lat="43.52879" lon="3.78883">
        <ele>190</ele>
        <time>2021-06-16T09:05:21+02:00</time>
      </trkpt>
      <trkpt lat="43.529" lon="3.78894">
        <ele>193</ele>
        <time>2021-06-16T09:05:48+02:00</time>
      </trkpt>
      <trkpt lat="43.52923" lon="3.78899">
        <ele>195</ele>
        <time>2021-06-16T09:06:21+02:00</time>
      </trkpt>
      <trkpt lat="43.52946" lon="3.78892">
        <ele>195</ele>
        <time>2021-06-16T09:06:39+02:00</time>
      </trkpt>
      <trkpt lat="43.52968" lon="3.7888">
        <ele>195</ele>
        <time>2021-06-16T09:07:02+02:00</time>
      </trkpt>
      <trkpt lat="43.5299" lon="3.78887">
        <ele>195</ele>
        <time>2021-06-16T09:07:29+02:00</time>
      </trkpt>
      <trkpt lat="43.53004" lon="3.78912">
        <ele>195</ele>
        <time>2021-06-16T09:07:57+02:00</time>
      </trkpt>
      <trkpt lat="43.53024" lon="3.78927">
        <ele>194</ele>
        <time>2021-06-16T09:08:17+02:00</time>
      </trkpt>
      <trkpt lat="43.53047" lon="3.7893">
        <ele>193</ele>
        <time>2021-06-16T09:08:36+02:00</time>
      </trkpt>
      <trkpt lat="43.5307" lon="3.78932">
        <ele>192</ele>
        <time>2021-06-16T09:08:55+02:00</time>
      </trkpt>
      <trkpt lat="43.53091" lon="3.78945">
        <ele>191</ele>
        <time>2021-06-16T09:09:15+02:00</time>
      </trkpt>
      <trkpt lat="43.5311" lon="3.78964">
        <ele>190</ele>
        <time>2021-06-16T09:09:39+02:00</time>
      </trkpt>
      <trkpt lat="43.53129" lon="3.78981">
        <ele>189</ele>
        <time>2021-06-16T09:09:58+02:00</time>
      </trkpt>
      <trkpt lat="43.53146" lon="3.79002">
        <ele>187</ele>
        <time>2021-06-16T09:10:19+02:00</time>
      </trkpt>
      <trkpt lat="43.53167" lon="3.79017">
        <ele>185</ele>
        <time>2021-06-16T09:10:35+02:00</time>
      </trkpt>
      <trkpt lat="43.53189" lon="3.79032">
        <ele>185</ele>
        <time>2021-06-16T09:10:56+02:00</time>
      </trkpt>
      <trkpt lat="43.5321" lon="3.79042">
        <ele>184</ele>
        <time>2021-06-16T09:11:15+02:00</time>
      </trkpt>
      <trkpt lat="43.5323" lon="3.79059">
        <ele>183</ele>
        <time>2021-06-16T09:11:38+02:00</time>
      </trkpt>
      <trkpt lat="43.53252" lon="3.79065">
        <ele>182</ele>
        <time>2021-06-16T09:11:55+02:00</time>
      </trkpt>
      <trkpt lat="43.53271" lon="3.79085">
        <ele>180</ele>
        <time>2021-06-16T09:12:16+02:00</time>
      </trkpt>
      <trkpt lat="43.53286" lon="3.79108">
        <ele>179</ele>
        <time>2021-06-16T09:12:35+02:00</time>
      </trkpt>
      <trkpt lat="43.53298" lon="3.79135">
        <ele>179</ele>
        <time>2021-06-16T09:12:55+02:00</time>
      </trkpt>
      <trkpt lat="43.53315" lon="3.79158">
        <ele>179</ele>
        <time>2021-06-16T09:13:13+02:00</time>
      </trkpt>
      <trkpt lat="43.53332" lon="3.79179">
        <ele>178</ele>
        <time>2021-06-16T09:13:34+02:00</time>
      </trkpt>
      <trkpt lat="43.53348" lon="3.79202">
        <ele>177</ele>
        <time>2021-06-16T09:13:56+02:00</time>
      </trkpt>
      <trkpt lat="43.53359" lon="3.79228">
        <ele>176</ele>
        <time>2021-06-16T09:14:17+02:00</time>
      </trkpt>
      <trkpt lat="43.53369" lon="3.79256">
        <ele>175</ele>
        <time>2021-06-16T09:14:45+02:00</time>
      </trkpt>
      <trkpt lat="43.53378" lon="3.79285">
        <ele>174</ele>
        <time>2021-06-16T09:15:12+02:00</time>
      </trkpt>
      <trkpt lat="43.53386" lon="3.79315">
        <ele>172</ele>
        <time>2021-06-16T09:15:37+02:00</time>
      </trkpt>
      <trkpt lat="43.53404" lon="3.79334">
        <ele>169</ele>
        <time>2021-06-16T09:15:56+02:00</time>
      </trkpt>
      <trkpt lat="43.53424" lon="3.79351">
        <ele>167</ele>
        <time>2021-06-16T09:16:14+02:00</time>
      </trkpt>
      <trkpt lat="43.53439" lon="3.79376">
        <ele>165</ele>
        <time>2021-06-16T09:16:33+02:00</time>
      </trkpt>
      <trkpt lat="43.5346" lon="3.79392">
        <ele>165</ele>
        <time>2021-06-16T09:16:54+02:00</time>
      </trkpt>
      <trkpt lat="43.53482" lon="3.79401">
        <ele>165</ele>
        <time>2021-06-16T09:17:14+02:00</time>
      </trkpt>
      <trkpt lat="43.53502" lon="3.79415">
        <ele>165</ele>
        <time>2021-06-16T09:17:29+02:00</time>
      </trkpt>
      <trkpt lat="43.53516" lon="3.79439">
        <ele>165</ele>
        <time>2021-06-16T09:17:59+02:00</time>
      </trkpt>
      <trkpt lat="43.53533" lon="3.79461">
        <ele>165</ele>
        <time>2021-06-16T09:18:18+02:00</time>
      </trkpt>
      <trkpt lat="43.53547" lon="3.79487">
        <ele>165</ele>
        <time>2021-06-16T09:18:40+02:00</time>
      </trkpt>
      <trkpt lat="43.5357" lon="3.79491">
        <ele>165</ele>
        <time>2021-06-16T09:18:59+02:00</time>
      </trkpt>
      <trkpt lat="43.53591" lon="3.79506">
        <ele>164</ele>
        <time>2021-06-16T09:19:19+02:00</time>
      </trkpt>
      <trkpt lat="43.5361" lon="3.79523">
        <ele>162</ele>
        <time>2021-06-16T09:19:40+02:00</time>
      </trkpt>
      <trkpt lat="43.53631" lon="3.79536">
        <ele>159</ele>
        <time>2021-06-16T09:20:01+02:00</time>
      </trkpt>
      <trkpt lat="43.53653" lon="3.79539">
        <ele>155</ele>
        <time>2021-06-16T09:20:29+02:00</time>
      </trkpt>
      <trkpt lat="43.53675" lon="3.79549">
        <ele>153</ele>
        <time>2021-06-16T09:20:54+02:00</time>
      </trkpt>
      <trkpt lat="43.53695" lon="3.79564">
        <ele>151</ele>
        <time>2021-06-16T09:21:18+02:00</time>
      </trkpt>
      <trkpt lat="43.53716" lon="3.7958">
        <ele>149</ele>
        <time>2021-06-16T09:21:40+02:00</time>
      </trkpt>
      <trkpt lat="43.53739" lon="3.79582">
        <ele>145</ele>
        <time>2021-06-16T09:22:15+02:00</time>
      </trkpt>
      <trkpt lat="43.53761" lon="3.79583">
        <ele>142</ele>
        <time>2021-06-16T09:22:43+02:00</time>
      </trkpt>
      <trkpt lat="43.53783" lon="3.79596">
        <ele>138</ele>
        <time>2021-06-16T09:23:04+02:00</time>
      </trkpt>
      <trkpt lat="43.53806" lon="3.796">
        <ele>135</ele>
        <time>2021-06-16T09:23:24+02:00</time>
      </trkpt>
      <trkpt lat="43.53827" lon="3.79614">
        <ele>133</ele>
        <time>2021-06-16T09:23:50+02:00</time>
      </trkpt>
      <trkpt lat="43.5385" lon="3.79622">
        <ele>131</ele>
        <time>2021-06-16T09:24:13+02:00</time>
      </trkpt>
      <trkpt lat="43.53867" lon="3.79643">
        <ele>130</ele>
        <time>2021-06-16T09:24:34+02:00</time>
      </trkpt>
      <trkpt lat="43.53882" lon="3.79668">
        <ele>129</ele>
        <time>2021-06-16T09:24:57+02:00</time>
      </trkpt>
      <trkpt lat="43.53899" lon="3.79689">
        <ele>127</ele>
        <time>2021-06-16T09:25:16+02:00</time>
      </trkpt>
      <trkpt lat="43.53922" lon="3.79684">
        <ele>126</ele>
        <time>2021-06-16T09:25:36+02:00</time>
      </trkpt>
      <trkpt lat="43.53942" lon="3.79667">
        <ele>124</ele>
        <time>2021-06-16T09:25:55+02:00</time>
      </trkpt>
      <trkpt lat="43.53962" lon="3.7965">
        <ele>122</ele>
        <time>2021-06-16T09:26:14+02:00</time>
      </trkpt>
      <trkpt lat="43.53983" lon="3.79636">
        <ele>121</ele>
        <time>2021-06-16T09:26:34+02:00</time>
      </trkpt>
      <trkpt lat="43.54006" lon="3.79636">
        <ele>120</ele>
        <time>2021-06-16T09:26:56+02:00</time>
      </trkpt>
      <trkpt lat="43.54025" lon="3.79652">
        <ele>120</ele>
        <time>2021-06-16T09:27:17+02:00</time>
      </trkpt>
      <trkpt lat="43.54047" lon="3.79665">
        <ele>119</ele>
        <time>2021-06-16T09:27:35+02:00</time>
      </trkpt>
      <trkpt lat="43.54069" lon="3.79674">
        <ele>116</ele>
        <time>2021-06-16T09:27:54+02:00</time>
      </trkpt>
      <trkpt lat="43.5409" lon="3.7966">
        <ele>113</ele>
        <time>2021-06-16T09:28:16+02:00</time>
      </trkpt>
      <trkpt lat="43.54105" lon="3.79635">
        <ele>111</ele>
        <time>2021-06-16T09:28:37+02:00</time>
      </trkpt>
      <trkpt lat="43.54115" lon="3.79607">
        <ele>111</ele>
        <time>2021-06-16T09:28:54+02:00</time>
      </trkpt>
      <trkpt lat="43.54128" lon="3.79582">
        <ele>110</ele>
        <time>2021-06-16T09:29:13+02:00</time>
      </trkpt>
      <trkpt lat="43.54143" lon="3.79557">
        <ele>109</ele>
        <time>2021-06-16T09:29:31+02:00</time>
      </trkpt>
      <trkpt lat="43.54161" lon="3.79537">
        <ele>107</ele>
        <time>2021-06-16T09:29:47+02:00</time>
      </trkpt>
      <trkpt lat="43.5418" lon="3.79519">
        <ele>105</ele>
        <time>2021-06-16T09:30:07+02:00</time>
      </trkpt>
      <trkpt lat="43.54202" lon="3.79509">
        <ele>103</ele>
        <time>2021-06-16T09:30:26+02:00</time>
      </trkpt>
      <trkpt lat="43.54225" lon="3.79515">
        <ele>101</ele>
        <time>2021-06-16T09:31:00+02:00</time>
      </trkpt>
      <trkpt lat="43.54249" lon="3.79518">
        <ele>97</ele>
        <time>2021-06-16T09:31:26+02:00</time>
      </trkpt>
      <trkpt lat="43.54271" lon="3.79519">
        <ele>93</ele>
        <time>2021-06-16T09:31:49+02:00</time>
      </trkpt>
      <trkpt lat="43.54293" lon="3.79509">
        <ele>90</ele>
        <time>2021-06-16T09:32:45+02:00</time>
      </trkpt>
      <trkpt lat="43.54313" lon="3.79524">
        <ele>86</ele>
        <time>2021-06-16T09:33:20+02:00</time>
      </trkpt>
      <trkpt lat="43.54308" lon="3.79555">
        <ele>85</ele>
        <time>2021-06-16T09:33:40+02:00</time>
      </trkpt>
      <trkpt lat="43.54294" lon="3.7958">
        <ele>84</ele>
        <time>2021-06-16T09:34:03+02:00</time>
      </trkpt>
      <trkpt lat="43.54275" lon="3.79599">
        <ele>84</ele>
        <time>2021-06-16T09:34:33+02:00</time>
      </trkpt>
      <trkpt lat="43.54254" lon="3.79611">
        <ele>85</ele>
        <time>2021-06-16T09:34:48+02:00</time>
      </trkpt>
      <trkpt lat="43.54231" lon="3.79603">
        <ele>89</ele>
        <time>2021-06-16T09:35:12+02:00</time>
      </trkpt>
      <trkpt lat="43.54208" lon="3.79596">
        <ele>92</ele>
        <time>2021-06-16T09:35:32+02:00</time>
      </trkpt>
      <trkpt lat="43.54189" lon="3.79612">
        <ele>92</ele>
        <time>2021-06-16T09:35:59+02:00</time>
      </trkpt>
      <trkpt lat="43.54177" lon="3.79641">
        <ele>91</ele>
        <time>2021-06-16T09:36:49+02:00</time>
      </trkpt>
      <trkpt lat="43.54162" lon="3.79665">
        <ele>93</ele>
        <time>2021-06-16T09:37:04+02:00</time>
      </trkpt>
      <trkpt lat="43.5416" lon="3.79697">
        <ele>94</ele>
        <time>2021-06-16T09:37:22+02:00</time>
      </trkpt>
      <trkpt lat="43.54157" lon="3.79729">
        <ele>94</ele>
        <time>2021-06-16T09:37:42+02:00</time>
      </trkpt>
      <trkpt lat="43.54153" lon="3.7976">
        <ele>93</ele>
        <time>2021-06-16T09:38:02+02:00</time>
      </trkpt>
      <trkpt lat="43.54137" lon="3.79784">
        <ele>93</ele>
        <time>2021-06-16T09:38:25+02:00</time>
      </trkpt>
      <trkpt lat="43.54118" lon="3.79802">
        <ele>97</ele>
        <time>2021-06-16T09:38:42+02:00</time>
      </trkpt>
      <trkpt lat="43.54099" lon="3.79821">
        <ele>97</ele>
        <time>2021-06-16T09:38:57+02:00</time>
      </trkpt>
      <trkpt lat="43.54076" lon="3.79821">
        <ele>99</ele>
        <time>2021-06-16T09:39:22+02:00</time>
      </trkpt>
      <trkpt lat="43.54054" lon="3.79811">
        <ele>100</ele>
        <time>2021-06-16T09:39:43+02:00</time>
      </trkpt>
      <trkpt lat="43.54033" lon="3.79797">
        <ele>100</ele>
        <time>2021-06-16T09:40:04+02:00</time>
      </trkpt>
      <trkpt lat="43.54015" lon="3.79777">
        <ele>102</ele>
        <time>2021-06-16T09:40:55+02:00</time>
      </trkpt>
      <trkpt lat="43.53999" lon="3.79799">
        <ele>98</ele>
        <time>2021-06-16T09:44:41+02:00</time>
      </trkpt>
      <trkpt lat="43.5399" lon="3.79829">
        <ele>98</ele>
        <time>2021-06-16T09:45:01+02:00</time>
      </trkpt>
      <trkpt lat="43.53987" lon="3.79861">
        <ele>97</ele>
        <time>2021-06-16T09:45:19+02:00</time>
      </trkpt>
      <trkpt lat="43.53984" lon="3.79892">
        <ele>97</ele>
        <time>2021-06-16T09:45:36+02:00</time>
      </trkpt>
      <trkpt lat="43.53979" lon="3.79923">
        <ele>97</ele>
        <time>2021-06-16T09:45:57+02:00</time>
      </trkpt>
      <trkpt lat="43.53977" lon="3.79955">
        <ele>97</ele>
        <time>2021-06-16T09:46:18+02:00</time>
      </trkpt>
      <trkpt lat="43.53976" lon="3.79987">
        <ele>95</ele>
        <time>2021-06-16T09:46:33+02:00</time>
      </trkpt>
      <trkpt lat="43.53969" lon="3.80018">
        <ele>93</ele>
        <time>2021-06-16T09:46:55+02:00</time>
      </trkpt>
      <trkpt lat="43.53967" lon="3.80051">
        <ele>89</ele>
        <time>2021-06-16T09:47:16+02:00</time>
      </trkpt>
      <trkpt lat="43.53954" lon="3.80077">
        <ele>89</ele>
        <time>2021-06-16T09:47:39+02:00</time>
      </trkpt>
      <trkpt lat="43.53947" lon="3.80106">
        <ele>87</ele>
        <time>2021-06-16T09:47:59+02:00</time>
      </trkpt>
      <trkpt lat="43.53938" lon="3.80135">
        <ele>86</ele>
        <time>2021-06-16T09:48:22+02:00</time>
      </trkpt>
      <trkpt lat="43.53923" lon="3.80159">
        <ele>84</ele>
        <time>2021-06-16T09:48:43+02:00</time>
      </trkpt>
      <trkpt lat="43.53917" lon="3.80189">
        <ele>82</ele>
        <time>2021-06-16T09:49:06+02:00</time>
      </trkpt>
      <trkpt lat="43.53933" lon="3.80212">
        <ele>79</ele>
        <time>2021-06-16T09:49:31+02:00</time>
      </trkpt>
      <trkpt lat="43.53955" lon="3.80224">
        <ele>77</ele>
        <time>2021-06-16T09:49:52+02:00</time>
      </trkpt>
      <trkpt lat="43.53977" lon="3.80232">
        <ele>75</ele>
        <time>2021-06-16T09:50:10+02:00</time>
      </trkpt>
      <trkpt lat="43.54" lon="3.80224">
        <ele>73</ele>
        <time>2021-06-16T09:50:33+02:00</time>
      </trkpt>
      <trkpt lat="43.5402" lon="3.8024">
        <ele>71</ele>
        <time>2021-06-16T09:51:05+02:00</time>
      </trkpt>
      <trkpt lat="43.54027" lon="3.8027">
        <ele>69</ele>
        <time>2021-06-16T09:51:21+02:00</time>
      </trkpt>
      <trkpt lat="43.54034" lon="3.80301">
        <ele>68</ele>
        <time>2021-06-16T09:51:42+02:00</time>
      </trkpt>
      <trkpt lat="43.54039" lon="3.80333">
        <ele>66</ele>
        <time>2021-06-16T09:52:02+02:00</time>
      </trkpt>
      <trkpt lat="43.54046" lon="3.80362">
        <ele>65</ele>
        <time>2021-06-16T09:52:21+02:00</time>
      </trkpt>
      <trkpt lat="43.54054" lon="3.80393">
        <ele>63</ele>
        <time>2021-06-16T09:52:40+02:00</time>
      </trkpt>
      <trkpt lat="43.54065" lon="3.80421">
        <ele>61</ele>
        <time>2021-06-16T09:53:01+02:00</time>
      </trkpt>
      <trkpt lat="43.54077" lon="3.80448">
        <ele>59</ele>
        <time>2021-06-16T09:53:21+02:00</time>
      </trkpt>
      <trkpt lat="43.5409" lon="3.80473">
        <ele>59</ele>
        <time>2021-06-16T09:53:39+02:00</time>
      </trkpt>
      <trkpt lat="43.54106" lon="3.80497">
        <ele>59</ele>
        <time>2021-06-16T09:54:00+02:00</time>
      </trkpt>
      <trkpt lat="43.5412" lon="3.80522">
        <ele>59</ele>
        <time>2021-06-16T09:54:19+02:00</time>
      </trkpt>
      <trkpt lat="43.54125" lon="3.80532">
        <ele>59</ele>
      </trkpt>
      <trkpt lat="43.54131" lon="3.80541">
        <ele>59</ele>
        <time>2021-06-16T09:54:42+02:00</time>
      </trkpt>
      <trkpt lat="43.54138" lon="3.80546">
        <ele>59</ele>
        <time>2021-06-16T09:55:04+02:00</time>
      </trkpt>
      <trkpt lat="43.5413" lon="3.80583">
        <ele>59</ele>
      </trkpt>
      <trkpt lat="43.54126" lon="3.80618">
        <ele>60</ele>
        <time>2021-06-16T09:55:22+02:00</time>
      </trkpt>
      <trkpt lat="43.54125" lon="3.8065">
        <ele>61</ele>
        <time>2021-06-16T09:55:43+02:00</time>
      </trkpt>
      <trkpt lat="43.54119" lon="3.8068">
        <ele>62</ele>
        <time>2021-06-16T09:56:01+02:00</time>
      </trkpt>
      <trkpt lat="43.54114" lon="3.80711">
        <ele>63</ele>
        <time>2021-06-16T09:56:24+02:00</time>
      </trkpt>
      <trkpt lat="43.5411" lon="3.80741">
        <ele>64</ele>
        <time>2021-06-16T09:56:51+02:00</time>
      </trkpt>
      <trkpt lat="43.54106" lon="3.80772">
        <ele>65</ele>
        <time>2021-06-16T09:57:16+02:00</time>
      </trkpt>
      <trkpt lat="43.5411" lon="3.80803">
        <ele>67</ele>
        <time>2021-06-16T09:57:37+02:00</time>
      </trkpt>
      <trkpt lat="43.54114" lon="3.80834">
        <ele>68</ele>
        <time>2021-06-16T09:58:05+02:00</time>
      </trkpt>
      <trkpt lat="43.54116" lon="3.80865">
        <ele>69</ele>
        <time>2021-06-16T09:58:28+02:00</time>
      </trkpt>
      <trkpt lat="43.54115" lon="3.80897">
        <ele>72</ele>
        <time>2021-06-16T09:58:52+02:00</time>
      </trkpt>
      <trkpt lat="43.54117" lon="3.80929">
        <ele>73</ele>
        <time>2021-06-16T09:59:22+02:00</time>
      </trkpt>
      <trkpt lat="43.54119" lon="3.8096">
        <ele>75</ele>
        <time>2021-06-16T09:59:54+02:00</time>
      </trkpt>
      <trkpt lat="43.54116" lon="3.80991">
        <ele>77</ele>
        <time>2021-06-16T10:06:37+02:00</time>
      </trkpt>
      <trkpt lat="43.54119" lon="3.81022">
        <ele>80</ele>
        <time>2021-06-16T10:07:07+02:00</time>
      </trkpt>
      <trkpt lat="43.54129" lon="3.81051">
        <ele>82</ele>
        <time>2021-06-16T10:07:41+02:00</time>
      </trkpt>
      <trkpt lat="43.54146" lon="3.81072">
        <ele>84</ele>
        <time>2021-06-16T10:08:00+02:00</time>
      </trkpt>
      <trkpt lat="43.5416" lon="3.81098">
        <ele>85</ele>
        <time>2021-06-16T10:08:25+02:00</time>
      </trkpt>
      <trkpt lat="43.54168" lon="3.81127">
        <ele>85</ele>
        <time>2021-06-16T10:08:59+02:00</time>
      </trkpt>
      <trkpt lat="43.54182" lon="3.81154">
        <ele>85</ele>
        <time>2021-06-16T10:09:24+02:00</time>
      </trkpt>
      <trkpt lat="43.54194" lon="3.8118">
        <ele>82</ele>
        <time>2021-06-16T10:09:49+02:00</time>
      </trkpt>
      <trkpt lat="43.54211" lon="3.81202">
        <ele>80</ele>
        <time>2021-06-16T10:10:07+02:00</time>
      </trkpt>
      <trkpt lat="43.54226" lon="3.81226">
        <ele>77</ele>
        <time>2021-06-16T10:10:28+02:00</time>
      </trkpt>
      <trkpt lat="43.54237" lon="3.81255">
        <ele>75</ele>
        <time>2021-06-16T10:10:55+02:00</time>
      </trkpt>
      <trkpt lat="43.54249" lon="3.81281">
        <ele>72</ele>
        <time>2021-06-16T10:11:21+02:00</time>
      </trkpt>
      <trkpt lat="43.54262" lon="3.81308">
        <ele>69</ele>
        <time>2021-06-16T10:11:48+02:00</time>
      </trkpt>
      <trkpt lat="43.54272" lon="3.81336">
        <ele>65</ele>
        <time>2021-06-16T10:12:07+02:00</time>
      </trkpt>
      <trkpt lat="43.5428" lon="3.81366">
        <ele>63</ele>
        <time>2021-06-16T10:12:34+02:00</time>
      </trkpt>
      <trkpt lat="43.54284" lon="3.81397">
        <ele>60</ele>
        <time>2021-06-16T10:12:54+02:00</time>
      </trkpt>
      <trkpt lat="43.5429" lon="3.81427">
        <ele>59</ele>
        <time>2021-06-16T10:13:24+02:00</time>
      </trkpt>
      <trkpt lat="43.54301" lon="3.81455">
        <ele>57</ele>
        <time>2021-06-16T10:13:49+02:00</time>
      </trkpt>
      <trkpt lat="43.54311" lon="3.81484">
        <ele>56</ele>
        <time>2021-06-16T10:14:13+02:00</time>
      </trkpt>
      <trkpt lat="43.54318" lon="3.81515">
        <ele>55</ele>
        <time>2021-06-16T10:14:28+02:00</time>
      </trkpt>
      <trkpt lat="43.5432" lon="3.81548">
        <ele>53</ele>
        <time>2021-06-16T10:14:46+02:00</time>
      </trkpt>
      <trkpt lat="43.54315" lon="3.81578">
        <ele>52</ele>
        <time>2021-06-16T10:15:09+02:00</time>
      </trkpt>
      <trkpt lat="43.54312" lon="3.81609">
        <ele>50</ele>
        <time>2021-06-16T10:15:27+02:00</time>
      </trkpt>
      <trkpt lat="43.54324" lon="3.81636">
        <ele>49</ele>
        <time>2021-06-16T10:15:53+02:00</time>
      </trkpt>
      <trkpt lat="43.54333" lon="3.81661">
        <ele>48</ele>
        <time>2021-06-16T10:16:11+02:00</time>
      </trkpt>
      <trkpt lat="43.54354" lon="3.8167">
        <ele>48</ele>
        <time>2021-06-16T10:16:33+02:00</time>
      </trkpt>
      <trkpt lat="43.54384" lon="3.81672">
        <ele>49</ele>
        <time>2021-06-16T10:16:58+02:00</time>
      </trkpt>
      <trkpt lat="43.544" lon="3.81681">
        <ele>49</ele>
        <time>2021-06-16T10:17:15+02:00</time>
      </trkpt>
      <trkpt lat="43.54416" lon="3.81685">
        <ele>49</ele>
        <time>2021-06-16T10:17:37+02:00</time>
      </trkpt>
      <trkpt lat="43.5444" lon="3.81712">
        <ele>48</ele>
        <time>2021-06-16T10:17:57+02:00</time>
      </trkpt>
      <trkpt lat="43.54463" lon="3.81722">
        <ele>47</ele>
        <time>2021-06-16T10:18:18+02:00</time>
      </trkpt>
      <trkpt lat="43.54476" lon="3.81729">
        <ele>47</ele>
        <time>2021-06-16T10:18:39+02:00</time>
      </trkpt>
      <trkpt lat="43.54523" lon="3.81734">
        <ele>47</ele>
        <time>2021-06-16T10:19:20+02:00</time>
      </trkpt>
      <trkpt lat="43.54552" lon="3.81745">
        <ele>45</ele>
        <time>2021-06-16T10:19:39+02:00</time>
      </trkpt>
      <trkpt lat="43.54574" lon="3.81753">
        <ele>45</ele>
        <time>2021-06-16T10:20:13+02:00</time>
      </trkpt>
      <trkpt lat="43.54586" lon="3.81761">
        <ele>45</ele>
        <time>2021-06-16T10:20:49+02:00</time>
      </trkpt>
      <trkpt lat="43.546" lon="3.81771">
        <ele>44</ele>
      </trkpt>
      <trkpt lat="43.54618" lon="3.81782">
        <ele>42</ele>
      </trkpt>
      <trkpt lat="43.54627" lon="3.8179">
        <ele>41</ele>
      </trkpt>
      <trkpt lat="43.54619" lon="3.81823">
        <ele>40</ele>
      </trkpt>
      <trkpt lat="43.5461" lon="3.81848">
        <ele>40</ele>
        <time>2021-06-16T10:21:15+02:00</time>
      </trkpt>
    </trkseg>
  </trk>
</gpx>